sensor_id;sensor_type;location;lat;lon;timestamp;temperature;humidity
108;DHT22;49;48.530;9.200;2022-10-13T00:00:48;14.60;6.00
108;DHT22;49;48.530;9.200;2022-10-13T00:03:16;14.50;6.50
108;DHT22;49;48.530;9.200;2022-10-13T00:05:46;14.40;7.20
108;DHT22;49;48.530;9.200;2022-10-13T00:08:15;14.40;6.50
108;DHT22;49;48.530;9.200;2022-10-13T00:10:43;14.40;7.00
108;DHT22;49;48.530;9.200;2022-10-13T00:13:11;14.40;6.50
108;DHT22;49;48.530;9.200;2022-10-13T00:15:38;14.40;7.50
108;DHT22;49;48.530;9.200;2022-10-13T00:18:06;14.40;6.50
108;DHT22;49;48.530;9.200;2022-10-13T00:20:33;14.50;6.40
108;DHT22;49;48.530;9.200;2022-10-13T00:23:01;14.30;7.00
108;DHT22;49;48.530;9.200;2022-10-13T00:25:28;13.90;8.20
108;DHT22;49;48.530;9.200;2022-10-13T00:27:55;13.70;9.10
108;DHT22;49;48.530;9.200;2022-10-13T00:30:22;13.70;9.90
108;DHT22;49;48.530;9.200;2022-10-13T00:32:50;13.70;10.10
108;DHT22;49;48.530;9.200;2022-10-13T00:35:17;13.20;11.30
108;DHT22;49;48.530;9.200;2022-10-13T00:37:44;12.90;13.30
108;DHT22;49;48.530;9.200;2022-10-13T00:40:13;13.00;12.90
108;DHT22;49;48.530;9.200;2022-10-13T00:42:40;13.30;12.60
108;DHT22;49;48.530;9.200;2022-10-13T00:47:38;13.30;12.50
108;DHT22;49;48.530;9.200;2022-10-13T00:50:09;13.40;12.50
108;DHT22;49;48.530;9.200;2022-10-13T00:52:38;13.80;11.00
108;DHT22;49;48.530;9.200;2022-10-13T00:55:08;14.10;10.30
108;DHT22;49;48.530;9.200;2022-10-13T00:57:42;14.30;9.20
108;DHT22;49;48.530;9.200;2022-10-13T01:00:12;14.30;8.40
108;DHT22;49;48.530;9.200;2022-10-13T01:02:39;14.40;8.90
108;DHT22;49;48.530;9.200;2022-10-13T01:05:08;14.40;8.60
108;DHT22;49;48.530;9.200;2022-10-13T01:07:35;14.30;9.50
108;DHT22;49;48.530;9.200;2022-10-13T01:10:03;14.30;9.90
108;DHT22;49;48.530;9.200;2022-10-13T01:12:42;14.20;9.40
108;DHT22;49;48.530;9.200;2022-10-13T01:15:21;14.20;10.50
108;DHT22;49;48.530;9.200;2022-10-13T01:18:01;14.40;8.90
108;DHT22;49;48.530;9.200;2022-10-13T01:20:55;14.40;8.80
108;DHT22;49;48.530;9.200;2022-10-13T01:23:52;14.40;8.90
108;DHT22;49;48.530;9.200;2022-10-13T01:26:54;14.40;8.70
108;DHT22;49;48.530;9.200;2022-10-13T01:32:48;14.60;9.50
108;DHT22;49;48.530;9.200;2022-10-13T01:35:22;14.70;8.00
108;DHT22;49;48.530;9.200;2022-10-13T01:37:57;14.80;7.60
108;DHT22;49;48.530;9.200;2022-10-13T01:45:38;14.70;6.60
108;DHT22;49;48.530;9.200;2022-10-13T01:48:10;14.70;7.10
108;DHT22;49;48.530;9.200;2022-10-13T01:50:38;14.70;6.60
108;DHT22;49;48.530;9.200;2022-10-13T01:55:33;14.40;7.60
108;DHT22;49;48.530;9.200;2022-10-13T01:58:00;14.40;7.80
108;DHT22;49;48.530;9.200;2022-10-13T02:03:07;14.90;6.90
108;DHT22;49;48.530;9.200;2022-10-13T02:05:45;14.80;6.70
108;DHT22;49;48.530;9.200;2022-10-13T02:08:22;14.80;7.10
108;DHT22;49;48.530;9.200;2022-10-13T02:10:55;14.80;7.40
108;DHT22;49;48.530;9.200;2022-10-13T02:18:36;15.30;7.00
108;DHT22;49;48.530;9.200;2022-10-13T02:21:05;15.40;6.90
108;DHT22;49;48.530;9.200;2022-10-13T02:23:33;15.50;7.10
108;DHT22;49;48.530;9.200;2022-10-13T02:26:00;15.60;6.50
108;DHT22;49;48.530;9.200;2022-10-13T02:28:28;15.60;6.80
108;DHT22;49;48.530;9.200;2022-10-13T02:30:55;15.70;6.40
108;DHT22;49;48.530;9.200;2022-10-13T02:33:25;15.80;5.90
108;DHT22;49;48.530;9.200;2022-10-13T02:35:52;15.70;6.30
108;DHT22;49;48.530;9.200;2022-10-13T02:38:21;15.70;6.00
108;DHT22;49;48.530;9.200;2022-10-13T02:40:49;15.60;6.20
108;DHT22;49;48.530;9.200;2022-10-13T02:43:16;15.60;6.30
108;DHT22;49;48.530;9.200;2022-10-13T02:45:43;15.50;6.40
108;DHT22;49;48.530;9.200;2022-10-13T02:48:11;15.40;5.90
108;DHT22;49;48.530;9.200;2022-10-13T02:53:13;15.20;6.60
108;DHT22;49;48.530;9.200;2022-10-13T02:55:41;15.30;6.40
108;DHT22;49;48.530;9.200;2022-10-13T02:58:09;15.30;6.60
108;DHT22;49;48.530;9.200;2022-10-13T03:00:36;15.30;6.60
108;DHT22;49;48.530;9.200;2022-10-13T03:03:04;15.30;6.80
108;DHT22;49;48.530;9.200;2022-10-13T03:05:31;15.20;6.70
108;DHT22;49;48.530;9.200;2022-10-13T03:07:58;15.10;6.80
108;DHT22;49;48.530;9.200;2022-10-13T03:10:25;15.20;6.70
108;DHT22;49;48.530;9.200;2022-10-13T03:12:54;15.20;7.00
108;DHT22;49;48.530;9.200;2022-10-13T03:15:22;15.30;6.40
108;DHT22;49;48.530;9.200;2022-10-13T03:17:50;15.40;6.40
108;DHT22;49;48.530;9.200;2022-10-13T03:20:17;15.30;6.70
108;DHT22;49;48.530;9.200;2022-10-13T03:25:17;15.30;6.80
108;DHT22;49;48.530;9.200;2022-10-13T03:27:44;15.50;7.10
108;DHT22;49;48.530;9.200;2022-10-13T03:30:15;15.40;6.50
108;DHT22;49;48.530;9.200;2022-10-13T03:32:42;15.50;6.40
108;DHT22;49;48.530;9.200;2022-10-13T03:35:09;15.40;7.00
108;DHT22;49;48.530;9.200;2022-10-13T03:37:38;15.40;6.60
108;DHT22;49;48.530;9.200;2022-10-13T03:40:06;15.40;6.20
108;DHT22;49;48.530;9.200;2022-10-13T03:42:37;15.40;6.80
108;DHT22;49;48.530;9.200;2022-10-13T03:45:06;15.60;5.80
108;DHT22;49;48.530;9.200;2022-10-13T03:47:36;15.50;6.00
108;DHT22;49;48.530;9.200;2022-10-13T03:50:04;15.60;6.20
108;DHT22;49;48.530;9.200;2022-10-13T03:52:31;15.60;5.90
108;DHT22;49;48.530;9.200;2022-10-13T03:54:58;15.80;6.10
108;DHT22;49;48.530;9.200;2022-10-13T03:57:26;15.60;5.80
108;DHT22;49;48.530;9.200;2022-10-13T03:59:53;15.70;6.40
108;DHT22;49;48.530;9.200;2022-10-13T04:02:21;15.60;5.40
108;DHT22;49;48.530;9.200;2022-10-13T04:04:49;15.50;5.90
108;DHT22;49;48.530;9.200;2022-10-13T04:07:20;15.20;6.60
108;DHT22;49;48.530;9.200;2022-10-13T04:09:47;15.10;6.60
108;DHT22;49;48.530;9.200;2022-10-13T04:12:14;14.80;7.00
108;DHT22;49;48.530;9.200;2022-10-13T04:14:41;14.70;7.40
108;DHT22;49;48.530;9.200;2022-10-13T04:17:11;14.80;6.70
108;DHT22;49;48.530;9.200;2022-10-13T04:19:38;15.00;6.70
108;DHT22;49;48.530;9.200;2022-10-13T04:22:07;14.90;6.80
108;DHT22;49;48.530;9.200;2022-10-13T04:24:34;14.80;7.40
108;DHT22;49;48.530;9.200;2022-10-13T04:27:02;14.60;7.40
108;DHT22;49;48.530;9.200;2022-10-13T04:29:29;14.60;7.40
108;DHT22;49;48.530;9.200;2022-10-13T04:31:58;14.50;7.50
108;DHT22;49;48.530;9.200;2022-10-13T04:34:25;14.40;7.80
108;DHT22;49;48.530;9.200;2022-10-13T04:36:52;14.50;7.50
108;DHT22;49;48.530;9.200;2022-10-13T04:39:22;14.40;7.70
108;DHT22;49;48.530;9.200;2022-10-13T04:41:49;14.30;7.70
108;DHT22;49;48.530;9.200;2022-10-13T04:44:16;14.40;7.00
108;DHT22;49;48.530;9.200;2022-10-13T04:46:43;14.20;8.40
108;DHT22;49;48.530;9.200;2022-10-13T04:49:10;14.20;8.00
108;DHT22;49;48.530;9.200;2022-10-13T04:51:37;14.30;7.60
108;DHT22;49;48.530;9.200;2022-10-13T04:54:04;14.20;7.60
108;DHT22;49;48.530;9.200;2022-10-13T04:56:32;14.10;7.60
108;DHT22;49;48.530;9.200;2022-10-13T04:58:59;13.90;7.60
108;DHT22;49;48.530;9.200;2022-10-13T05:01:26;13.70;7.50
108;DHT22;49;48.530;9.200;2022-10-13T05:03:56;13.80;8.10
108;DHT22;49;48.530;9.200;2022-10-13T05:06:25;14.10;9.70
108;DHT22;49;48.530;9.200;2022-10-13T05:08:53;14.60;11.20
108;DHT22;49;48.530;9.200;2022-10-13T05:11:20;15.10;9.20
108;DHT22;49;48.530;9.200;2022-10-13T05:13:50;15.10;6.90
108;DHT22;49;48.530;9.200;2022-10-13T05:16:18;14.90;8.10
108;DHT22;49;48.530;9.200;2022-10-13T05:18:46;14.80;7.60
108;DHT22;49;48.530;9.200;2022-10-13T05:21:14;14.80;8.40
108;DHT22;49;48.530;9.200;2022-10-13T05:23:42;15.00;8.40
108;DHT22;49;48.530;9.200;2022-10-13T05:26:11;15.30;8.80
108;DHT22;49;48.530;9.200;2022-10-13T05:28:39;15.90;9.50
108;DHT22;49;48.530;9.200;2022-10-13T05:31:14;16.30;9.10
108;DHT22;49;48.530;9.200;2022-10-13T05:33:41;16.70;8.60
108;DHT22;49;48.530;9.200;2022-10-13T05:36:11;16.90;7.80
108;DHT22;49;48.530;9.200;2022-10-13T05:38:38;17.10;7.20
108;DHT22;49;48.530;9.200;2022-10-13T05:43:41;16.10;2.10
108;DHT22;49;48.530;9.200;2022-10-13T05:46:10;15.60;5.50
108;DHT22;49;48.530;9.200;2022-10-13T05:53:40;16.30;6.70
108;DHT22;49;48.530;9.200;2022-10-13T05:56:14;16.70;6.00
108;DHT22;49;48.530;9.200;2022-10-13T06:01:20;17.10;6.50
108;DHT22;49;48.530;9.200;2022-10-13T06:03:49;17.20;3.60
108;DHT22;49;48.530;9.200;2022-10-13T06:08:45;17.10;5.60
108;DHT22;49;48.530;9.200;2022-10-13T06:13:47;17.30;4.60
108;DHT22;49;48.530;9.200;2022-10-13T06:16:16;17.50;4.30
108;DHT22;49;48.530;9.200;2022-10-13T06:18:43;17.30;1.70
108;DHT22;49;48.530;9.200;2022-10-13T06:24:01;17.20;2.60
108;DHT22;49;48.530;9.200;2022-10-13T06:34:01;17.10;4.00
108;DHT22;49;48.530;9.200;2022-10-13T06:36:27;17.10;4.00
108;DHT22;49;48.530;9.200;2022-10-13T06:38:54;17.20;4.10
108;DHT22;49;48.530;9.200;2022-10-13T06:41:22;17.40;4.10
108;DHT22;49;48.530;9.200;2022-10-13T06:48:59;17.80;1.30
108;DHT22;49;48.530;9.200;2022-10-13T06:56:30;17.60;1.90
108;DHT22;49;48.530;9.200;2022-10-13T06:58:57;17.40;2.10
108;DHT22;49;48.530;9.200;2022-10-13T07:01:24;17.40;1.90
108;DHT22;49;48.530;9.200;2022-10-13T07:29:13;18.50;1.80
108;DHT22;49;48.530;9.200;2022-10-13T07:34:14;18.70;1.30
108;DHT22;49;48.530;9.200;2022-10-13T07:49:21;18.50;1.40
108;DHT22;49;48.530;9.200;2022-10-13T07:54:17;18.50;1.40
108;DHT22;49;48.530;9.200;2022-10-13T07:59:35;19.00;1.20
108;DHT22;49;48.530;9.200;2022-10-13T08:07:05;19.00;1.00
108;DHT22;49;48.530;9.200;2022-10-13T08:09:33;18.80;1.00
108;DHT22;49;48.530;9.200;2022-10-13T08:12:00;18.90;1.00
108;DHT22;49;48.530;9.200;2022-10-13T08:14:28;18.90;1.00
108;DHT22;49;48.530;9.200;2022-10-13T08:16:55;18.80;1.00
108;DHT22;49;48.530;9.200;2022-10-13T08:19:23;19.20;1.00
108;DHT22;49;48.530;9.200;2022-10-13T08:29:28;19.70;1.00
108;DHT22;49;48.530;9.200;2022-10-13T08:34:24;19.60;1.20
108;DHT22;49;48.530;9.200;2022-10-13T08:36:52;19.70;1.00
108;DHT22;49;48.530;9.200;2022-10-13T08:39:22;20.00;1.00
108;DHT22;49;48.530;9.200;2022-10-13T08:41:52;20.00;1.00
108;DHT22;49;48.530;9.200;2022-10-13T08:44:24;19.90;1.00
108;DHT22;49;48.530;9.200;2022-10-13T08:47:16;20.00;1.00
108;DHT22;49;48.530;9.200;2022-10-13T08:49:44;20.10;1.00
108;DHT22;49;48.530;9.200;2022-10-13T08:52:17;20.30;1.00
108;DHT22;49;48.530;9.200;2022-10-13T08:54:45;20.50;1.00
108;DHT22;49;48.530;9.200;2022-10-13T08:59:46;20.40;1.00
108;DHT22;49;48.530;9.200;2022-10-13T09:02:22;20.60;1.00
108;DHT22;49;48.530;9.200;2022-10-13T09:04:51;20.70;1.00
108;DHT22;49;48.530;9.200;2022-10-13T09:07:22;21.10;1.00
108;DHT22;49;48.530;9.200;2022-10-13T09:09:50;21.10;1.00
108;DHT22;49;48.530;9.200;2022-10-13T09:12:18;21.00;1.00
108;DHT22;49;48.530;9.200;2022-10-13T09:14:56;20.90;1.00
108;DHT22;49;48.530;9.200;2022-10-13T09:17:28;20.80;1.00
108;DHT22;49;48.530;9.200;2022-10-13T09:20:00;20.70;1.00
108;DHT22;49;48.530;9.200;2022-10-13T09:22:31;20.70;1.00
108;DHT22;49;48.530;9.200;2022-10-13T09:25:14;20.80;1.00
108;DHT22;49;48.530;9.200;2022-10-13T09:27:44;20.80;1.00
108;DHT22;49;48.530;9.200;2022-10-13T09:30:32;20.80;1.00
108;DHT22;49;48.530;9.200;2022-10-13T09:33:16;20.60;1.00
108;DHT22;49;48.530;9.200;2022-10-13T09:35:46;20.90;1.00
108;DHT22;49;48.530;9.200;2022-10-13T09:38:15;20.80;1.00
108;DHT22;49;48.530;9.200;2022-10-13T09:40:56;20.70;1.00
108;DHT22;49;48.530;9.200;2022-10-13T09:43:28;20.90;1.00
108;DHT22;49;48.530;9.200;2022-10-13T09:45:56;21.00;1.00
108;DHT22;49;48.530;9.200;2022-10-13T09:48:27;21.10;1.00
108;DHT22;49;48.530;9.200;2022-10-13T09:50:56;21.00;1.00
108;DHT22;49;48.530;9.200;2022-10-13T09:53:30;21.00;1.00
108;DHT22;49;48.530;9.200;2022-10-13T09:56:11;21.00;1.00
108;DHT22;49;48.530;9.200;2022-10-13T09:58:44;21.00;1.00
108;DHT22;49;48.530;9.200;2022-10-13T10:01:21;21.00;1.00
108;DHT22;49;48.530;9.200;2022-10-13T10:03:50;20.90;1.00
108;DHT22;49;48.530;9.200;2022-10-13T10:06:18;21.10;1.00
108;DHT22;49;48.530;9.200;2022-10-13T10:08:52;20.90;1.00
108;DHT22;49;48.530;9.200;2022-10-13T10:11:26;21.20;1.00
108;DHT22;49;48.530;9.200;2022-10-13T10:13:54;21.30;1.00
108;DHT22;49;48.530;9.200;2022-10-13T10:16:27;21.40;1.00
108;DHT22;49;48.530;9.200;2022-10-13T10:19:05;21.40;1.00
108;DHT22;49;48.530;9.200;2022-10-13T10:21:43;21.30;1.00
108;DHT22;49;48.530;9.200;2022-10-13T10:24:22;21.40;1.00
108;DHT22;49;48.530;9.200;2022-10-13T10:26:55;21.50;1.00
108;DHT22;49;48.530;9.200;2022-10-13T10:29:37;21.50;1.00
108;DHT22;49;48.530;9.200;2022-10-13T10:32:21;21.40;1.00
108;DHT22;49;48.530;9.200;2022-10-13T10:34:59;21.50;1.00
108;DHT22;49;48.530;9.200;2022-10-13T10:37:52;21.60;1.00
108;DHT22;49;48.530;9.200;2022-10-13T10:40:34;21.80;1.00
108;DHT22;49;48.530;9.200;2022-10-13T10:43:30;21.70;1.00
108;DHT22;49;48.530;9.200;2022-10-13T10:46:00;21.60;1.00
108;DHT22;49;48.530;9.200;2022-10-13T10:48:31;21.50;1.00
108;DHT22;49;48.530;9.200;2022-10-13T10:51:05;21.30;1.00
108;DHT22;49;48.530;9.200;2022-10-13T10:53:38;21.10;1.00
108;DHT22;49;48.530;9.200;2022-10-13T10:56:16;20.90;1.00
108;DHT22;49;48.530;9.200;2022-10-13T10:58:52;21.00;1.00
108;DHT22;49;48.530;9.200;2022-10-13T11:01:30;21.20;1.00
108;DHT22;49;48.530;9.200;2022-10-13T11:04:23;21.30;1.00
108;DHT22;49;48.530;9.200;2022-10-13T11:06:56;21.40;1.00
108;DHT22;49;48.530;9.200;2022-10-13T11:12:46;21.80;1.00
108;DHT22;49;48.530;9.200;2022-10-13T11:15:19;21.90;1.00
108;DHT22;49;48.530;9.200;2022-10-13T11:17:47;21.90;1.00
108;DHT22;49;48.530;9.200;2022-10-13T11:20:53;21.90;1.00
108;DHT22;49;48.530;9.200;2022-10-13T11:23:31;22.00;1.00
108;DHT22;49;48.530;9.200;2022-10-13T11:26:27;22.00;1.00
108;DHT22;49;48.530;9.200;2022-10-13T11:28:56;22.10;1.00
108;DHT22;49;48.530;9.200;2022-10-13T11:31:30;22.10;1.00
108;DHT22;49;48.530;9.200;2022-10-13T11:34:00;21.90;1.00
108;DHT22;49;48.530;9.200;2022-10-13T11:36:49;21.50;1.00
108;DHT22;49;48.530;9.200;2022-10-13T11:43:17;21.60;1.00
108;DHT22;49;48.530;9.200;2022-10-13T11:46:00;22.10;1.00
108;DHT22;49;48.530;9.200;2022-10-13T11:48:49;22.10;1.00
108;DHT22;49;48.530;9.200;2022-10-13T11:51:31;22.20;1.00
108;DHT22;49;48.530;9.200;2022-10-13T11:54:13;22.10;1.00
108;DHT22;49;48.530;9.200;2022-10-13T11:56:46;22.40;1.00
108;DHT22;49;48.530;9.200;2022-10-13T11:59:25;22.40;1.00
108;DHT22;49;48.530;9.200;2022-10-13T12:01:53;22.20;1.00
108;DHT22;49;48.530;9.200;2022-10-13T12:04:22;22.00;1.00
108;DHT22;49;48.530;9.200;2022-10-13T12:06:59;22.20;1.00
108;DHT22;49;48.530;9.200;2022-10-13T12:09:27;22.30;1.00
108;DHT22;49;48.530;9.200;2022-10-13T12:11:59;22.30;1.00
108;DHT22;49;48.530;9.200;2022-10-13T12:14:30;22.40;1.00
108;DHT22;49;48.530;9.200;2022-10-13T12:17:00;22.60;1.00
108;DHT22;49;48.530;9.200;2022-10-13T12:19:29;22.70;1.00
108;DHT22;49;48.530;9.200;2022-10-13T12:21:59;22.90;1.00
108;DHT22;49;48.530;9.200;2022-10-13T12:24:28;22.30;1.00
108;DHT22;49;48.530;9.200;2022-10-13T12:26:57;22.20;1.00
108;DHT22;49;48.530;9.200;2022-10-13T12:29:26;22.60;1.00
108;DHT22;49;48.530;9.200;2022-10-13T12:31:55;22.70;1.00
108;DHT22;49;48.530;9.200;2022-10-13T12:34:26;22.80;1.00
108;DHT22;49;48.530;9.200;2022-10-13T12:36:59;23.10;1.00
108;DHT22;49;48.530;9.200;2022-10-13T12:39:30;22.80;1.00
108;DHT22;49;48.530;9.200;2022-10-13T12:42:00;22.80;1.00
108;DHT22;49;48.530;9.200;2022-10-13T12:44:31;22.90;1.00
108;DHT22;49;48.530;9.200;2022-10-13T12:47:01;22.80;1.00
108;DHT22;49;48.530;9.200;2022-10-13T12:49:30;22.80;1.00
108;DHT22;49;48.530;9.200;2022-10-13T12:52:04;22.90;1.00
108;DHT22;49;48.530;9.200;2022-10-13T12:54:33;22.10;1.00
108;DHT22;49;48.530;9.200;2022-10-13T12:57:04;22.20;1.00
108;DHT22;49;48.530;9.200;2022-10-13T13:02:18;22.70;1.00
108;DHT22;49;48.530;9.200;2022-10-13T13:04:45;23.10;1.00
108;DHT22;49;48.530;9.200;2022-10-13T13:07:28;23.30;1.00
108;DHT22;49;48.530;9.200;2022-10-13T13:10:14;23.40;1.00
108;DHT22;49;48.530;9.200;2022-10-13T13:15:32;23.00;1.00
108;DHT22;49;48.530;9.200;2022-10-13T13:21:07;23.30;1.00
108;DHT22;49;48.530;9.200;2022-10-13T13:23:34;23.00;1.00
108;DHT22;49;48.530;9.200;2022-10-13T13:28:31;23.20;1.00
108;DHT22;49;48.530;9.200;2022-10-13T13:30:59;23.30;1.00
108;DHT22;49;48.530;9.200;2022-10-13T13:33:26;23.40;1.00
108;DHT22;49;48.530;9.200;2022-10-13T13:35:55;23.50;1.00
108;DHT22;49;48.530;9.200;2022-10-13T13:38:24;23.50;1.00
108;DHT22;49;48.530;9.200;2022-10-13T13:43:26;23.50;1.00
108;DHT22;49;48.530;9.200;2022-10-13T13:45:53;23.70;1.00
108;DHT22;49;48.530;9.200;2022-10-13T13:48:20;23.80;1.00
108;DHT22;49;48.530;9.200;2022-10-13T13:50:47;23.70;1.00
108;DHT22;49;48.530;9.200;2022-10-13T13:53:14;23.60;1.00
108;DHT22;49;48.530;9.200;2022-10-13T13:55:46;23.40;1.00
108;DHT22;49;48.530;9.200;2022-10-13T13:58:14;23.10;1.00
108;DHT22;49;48.530;9.200;2022-10-13T14:00:41;23.10;1.00
108;DHT22;49;48.530;9.200;2022-10-13T14:03:08;23.30;1.00
108;DHT22;49;48.530;9.200;2022-10-13T14:05:37;23.30;1.00
108;DHT22;49;48.530;9.200;2022-10-13T14:08:05;23.50;1.00
108;DHT22;49;48.530;9.200;2022-10-13T14:10:32;23.30;1.00
108;DHT22;49;48.530;9.200;2022-10-13T14:15:30;23.20;1.00
108;DHT22;49;48.530;9.200;2022-10-13T14:18:01;23.30;1.00
108;DHT22;49;48.530;9.200;2022-10-13T14:20:28;23.20;1.00
108;DHT22;49;48.530;9.200;2022-10-13T14:22:55;23.30;1.00
108;DHT22;49;48.530;9.200;2022-10-13T14:25:24;23.20;1.00
108;DHT22;49;48.530;9.200;2022-10-13T14:27:51;23.30;1.00
108;DHT22;49;48.530;9.200;2022-10-13T14:30:18;23.00;1.00
108;DHT22;49;48.530;9.200;2022-10-13T14:32:47;23.00;1.00
108;DHT22;49;48.530;9.200;2022-10-13T14:35:14;23.20;1.00
108;DHT22;49;48.530;9.200;2022-10-13T14:37:41;23.30;1.00
108;DHT22;49;48.530;9.200;2022-10-13T14:40:09;23.20;1.00
108;DHT22;49;48.530;9.200;2022-10-13T14:42:38;23.20;1.00
108;DHT22;49;48.530;9.200;2022-10-13T14:45:07;23.10;1.00
108;DHT22;49;48.530;9.200;2022-10-13T14:52:41;23.00;1.00
108;DHT22;49;48.530;9.200;2022-10-13T14:55:08;23.00;1.00
108;DHT22;49;48.530;9.200;2022-10-13T14:57:35;22.90;1.00
108;DHT22;49;48.530;9.200;2022-10-13T15:00:04;22.90;1.00
108;DHT22;49;48.530;9.200;2022-10-13T15:02:31;22.80;1.00
108;DHT22;49;48.530;9.200;2022-10-13T15:04:58;22.90;1.00
108;DHT22;49;48.530;9.200;2022-10-13T15:07:25;23.00;1.00
108;DHT22;49;48.530;9.200;2022-10-13T15:12:23;23.00;1.00
108;DHT22;49;48.530;9.200;2022-10-13T15:17:18;22.40;1.00
108;DHT22;49;48.530;9.200;2022-10-13T15:19:45;22.50;1.00
108;DHT22;49;48.530;9.200;2022-10-13T15:22:12;22.60;1.00
108;DHT22;49;48.530;9.200;2022-10-13T15:24:39;22.40;1.00
108;DHT22;49;48.530;9.200;2022-10-13T15:27:06;22.20;1.00
108;DHT22;49;48.530;9.200;2022-10-13T15:29:34;22.20;1.00
108;DHT22;49;48.530;9.200;2022-10-13T15:32:07;22.20;1.00
108;DHT22;49;48.530;9.200;2022-10-13T15:34:37;22.00;1.00
108;DHT22;49;48.530;9.200;2022-10-13T15:39:33;22.20;1.00
108;DHT22;49;48.530;9.200;2022-10-13T15:42:00;22.00;1.00
108;DHT22;49;48.530;9.200;2022-10-13T15:46:56;22.00;1.00
108;DHT22;49;48.530;9.200;2022-10-13T15:49:24;22.00;1.00
108;DHT22;49;48.530;9.200;2022-10-13T15:51:53;22.10;1.00
108;DHT22;49;48.530;9.200;2022-10-13T15:54:20;21.80;1.00
108;DHT22;49;48.530;9.200;2022-10-13T15:56:48;21.70;1.00
108;DHT22;49;48.530;9.200;2022-10-13T15:59:16;21.60;1.00
108;DHT22;49;48.530;9.200;2022-10-13T16:01:42;21.70;1.00
108;DHT22;49;48.530;9.200;2022-10-13T16:04:11;21.70;1.00
108;DHT22;49;48.530;9.200;2022-10-13T16:06:38;21.60;1.00
108;DHT22;49;48.530;9.200;2022-10-13T16:09:05;21.40;1.00
108;DHT22;49;48.530;9.200;2022-10-13T16:11:32;21.40;1.00
108;DHT22;49;48.530;9.200;2022-10-13T16:13:59;21.50;1.00
108;DHT22;49;48.530;9.200;2022-10-13T16:16:26;21.40;1.00
108;DHT22;49;48.530;9.200;2022-10-13T16:18:54;21.30;1.00
108;DHT22;49;48.530;9.200;2022-10-13T16:21:24;21.40;1.00
108;DHT22;49;48.530;9.200;2022-10-13T16:23:52;21.40;1.00
108;DHT22;49;48.530;9.200;2022-10-13T16:26:21;21.40;1.00
108;DHT22;49;48.530;9.200;2022-10-13T16:28:48;21.40;1.00
108;DHT22;49;48.530;9.200;2022-10-13T16:31:16;21.30;1.00
108;DHT22;49;48.530;9.200;2022-10-13T16:33:44;21.30;1.00
108;DHT22;49;48.530;9.200;2022-10-13T16:36:13;21.20;1.00
108;DHT22;49;48.530;9.200;2022-10-13T16:38:42;21.10;1.00
108;DHT22;49;48.530;9.200;2022-10-13T16:41:12;21.10;1.00
108;DHT22;49;48.530;9.200;2022-10-13T16:43:39;21.00;1.00
108;DHT22;49;48.530;9.200;2022-10-13T16:46:09;20.90;1.00
108;DHT22;49;48.530;9.200;2022-10-13T16:48:38;20.80;1.00
108;DHT22;49;48.530;9.200;2022-10-13T16:51:07;20.80;1.00
108;DHT22;49;48.530;9.200;2022-10-13T16:53:35;20.80;1.00
108;DHT22;49;48.530;9.200;2022-10-13T16:56:05;20.80;1.00
108;DHT22;49;48.530;9.200;2022-10-13T16:58:33;20.70;1.00
108;DHT22;49;48.530;9.200;2022-10-13T17:01:02;20.70;1.00
108;DHT22;49;48.530;9.200;2022-10-13T17:03:29;20.80;1.00
108;DHT22;49;48.530;9.200;2022-10-13T17:05:59;20.80;1.00
108;DHT22;49;48.530;9.200;2022-10-13T17:08:27;20.90;1.00
108;DHT22;49;48.530;9.200;2022-10-13T17:10:54;20.80;1.00
108;DHT22;49;48.530;9.200;2022-10-13T17:13:23;20.80;1.00
108;DHT22;49;48.530;9.200;2022-10-13T17:15:51;20.70;1.00
108;DHT22;49;48.530;9.200;2022-10-13T17:18:19;20.70;1.00
108;DHT22;49;48.530;9.200;2022-10-13T17:20:50;20.90;1.00
108;DHT22;49;48.530;9.200;2022-10-13T17:23:18;20.90;1.00
108;DHT22;49;48.530;9.200;2022-10-13T17:25:46;20.80;1.00
108;DHT22;49;48.530;9.200;2022-10-13T17:28:13;20.40;1.00
108;DHT22;49;48.530;9.200;2022-10-13T17:30:43;20.20;1.80
108;DHT22;49;48.530;9.200;2022-10-13T17:33:12;20.10;2.10
108;DHT22;49;48.530;9.200;2022-10-13T17:35:40;20.20;2.20
108;DHT22;49;48.530;9.200;2022-10-13T17:38:07;20.20;2.20
108;DHT22;49;48.530;9.200;2022-10-13T17:40:34;20.40;1.50
108;DHT22;49;48.530;9.200;2022-10-13T17:43:02;20.60;1.00
108;DHT22;49;48.530;9.200;2022-10-13T17:45:29;20.80;1.00
108;DHT22;49;48.530;9.200;2022-10-13T17:47:59;20.90;1.00
108;DHT22;49;48.530;9.200;2022-10-13T17:50:26;21.00;1.00
108;DHT22;49;48.530;9.200;2022-10-13T17:55:22;21.10;1.00
108;DHT22;49;48.530;9.200;2022-10-13T17:57:48;21.00;1.00
108;DHT22;49;48.530;9.200;2022-10-13T18:00:16;21.00;1.00
108;DHT22;49;48.530;9.200;2022-10-13T18:02:43;20.90;1.00
108;DHT22;49;48.530;9.200;2022-10-13T18:05:12;20.70;1.00
108;DHT22;49;48.530;9.200;2022-10-13T18:07:39;20.70;1.00
108;DHT22;49;48.530;9.200;2022-10-13T18:10:07;20.60;1.30
108;DHT22;49;48.530;9.200;2022-10-13T18:12:35;20.60;1.50
108;DHT22;49;48.530;9.200;2022-10-13T18:15:04;20.60;1.00
108;DHT22;49;48.530;9.200;2022-10-13T18:17:33;20.60;2.10
108;DHT22;49;48.530;9.200;2022-10-13T18:20:03;20.60;2.20
108;DHT22;49;48.530;9.200;2022-10-13T18:22:32;20.70;1.70
108;DHT22;49;48.530;9.200;2022-10-13T18:25:01;20.60;1.80
108;DHT22;49;48.530;9.200;2022-10-13T18:27:28;20.40;3.30
108;DHT22;49;48.530;9.200;2022-10-13T18:29:55;20.10;4.30
108;DHT22;49;48.530;9.200;2022-10-13T18:32:24;20.20;4.20
108;DHT22;49;48.530;9.200;2022-10-13T18:34:53;20.30;3.20
108;DHT22;49;48.530;9.200;2022-10-13T18:37:21;20.40;3.60
108;DHT22;49;48.530;9.200;2022-10-13T18:39:49;20.50;3.00
108;DHT22;49;48.530;9.200;2022-10-13T18:42:16;20.50;3.50
108;DHT22;49;48.530;9.200;2022-10-13T18:44:43;20.50;2.70
108;DHT22;49;48.530;9.200;2022-10-13T18:47:10;20.20;4.30
108;DHT22;49;48.530;9.200;2022-10-13T18:49:37;20.20;4.20
108;DHT22;49;48.530;9.200;2022-10-13T18:52:04;20.20;4.10
108;DHT22;49;48.530;9.200;2022-10-13T18:54:31;19.90;5.10
108;DHT22;49;48.530;9.200;2022-10-13T18:56:59;19.70;5.90
108;DHT22;49;48.530;9.200;2022-10-13T18:59:26;19.70;5.10
108;DHT22;49;48.530;9.200;2022-10-13T19:01:53;19.70;5.90
108;DHT22;49;48.530;9.200;2022-10-13T19:04:20;19.70;5.50
108;DHT22;49;48.530;9.200;2022-10-13T19:06:47;19.90;5.10
108;DHT22;49;48.530;9.200;2022-10-13T19:09:15;19.90;4.80
108;DHT22;49;48.530;9.200;2022-10-13T19:11:46;19.90;5.00
108;DHT22;49;48.530;9.200;2022-10-13T19:14:14;20.10;4.10
108;DHT22;49;48.530;9.200;2022-10-13T19:16:42;20.10;4.30
108;DHT22;49;48.530;9.200;2022-10-13T19:19:10;20.10;4.70
108;DHT22;49;48.530;9.200;2022-10-13T19:21:38;20.00;4.10
108;DHT22;49;48.530;9.200;2022-10-13T19:24:06;19.90;4.60
108;DHT22;49;48.530;9.200;2022-10-13T19:26:35;20.00;4.10
108;DHT22;49;48.530;9.200;2022-10-13T19:29:05;19.90;4.80
108;DHT22;49;48.530;9.200;2022-10-13T19:31:36;20.00;4.50
108;DHT22;49;48.530;9.200;2022-10-13T19:34:04;20.00;4.40
108;DHT22;49;48.530;9.200;2022-10-13T19:36:34;19.90;4.60
108;DHT22;49;48.530;9.200;2022-10-13T19:39:04;20.10;4.00
108;DHT22;49;48.530;9.200;2022-10-13T19:41:32;20.10;4.00
108;DHT22;49;48.530;9.200;2022-10-13T19:43:59;20.00;4.00
108;DHT22;49;48.530;9.200;2022-10-13T19:46:27;19.90;3.60
108;DHT22;49;48.530;9.200;2022-10-13T19:48:55;20.00;3.80
108;DHT22;49;48.530;9.200;2022-10-13T19:51:22;20.20;3.50
108;DHT22;49;48.530;9.200;2022-10-13T19:53:49;20.20;3.10
108;DHT22;49;48.530;9.200;2022-10-13T19:56:18;20.20;2.90
108;DHT22;49;48.530;9.200;2022-10-13T20:01:22;20.10;3.40
108;DHT22;49;48.530;9.200;2022-10-13T20:03:50;20.20;3.20
108;DHT22;49;48.530;9.200;2022-10-13T20:06:20;20.20;2.90
108;DHT22;49;48.530;9.200;2022-10-13T20:09:02;20.20;3.20
108;DHT22;49;48.530;9.200;2022-10-13T20:11:29;20.10;2.90
108;DHT22;49;48.530;9.200;2022-10-13T20:13:56;20.10;3.30
108;DHT22;49;48.530;9.200;2022-10-13T20:16:24;20.20;2.90